KOKC/OKC METAR and TAF weather

Enter ICAO airport designator
Station Type Date Time Source
KOKC METAR 2021/04/13 05:52 UTC NOAA

KOKC 130552Z 01011KT 10SM SCT180 BKN200 BKN250 12/01 A3005 RMK AO2 SLP170 T01170006 10167 20117 401890111 50008


Station Type Date Time Source
KOKC Decoded METAR 2021/04/13 05:52 UTC NOAA

WILL ROGERS WORLD AIRPORT, OK, United States (KOKC) 35-23N 97-36W 390M
Apr 13, 2021 - 01:52 AM EDT / 2021.04.13 0552 UTC
Wind: from the N (010 degrees) at 13 MPH (11 KT):0
Visibility: 10 mile(s):0
Sky conditions: mostly cloudy
Temperature: 53.1 F (11.7 C)
Dew Point: 33.1 F (0.6 C)
Relative Humidity: 46%
Pressure (altimeter): 30.05 in. Hg (1017 hPa)
Pressure tendency: 0.02 inches (0.8 hPa) higher than three hours ago
ob: KOKC 130552Z 01011KT 10SM SCT180 BKN200 BKN250 12/01 A3005 RMK AO2 SLP170 T01170006 10167 20117 401890111 50008
cycle: 6

Station Type Date Time Source
KOKC TAF 2021/04/13 06:21 UTC NOAA

TAF KOKC 130520Z 1306/1406 01013KT P6SM SCT100 OVC200
FM131500 04015G22KT P6SM BKN150
FM140000 06011KT P6SM VCSH OVC050
TEMPO 1403/1406 3SM -RA OVC028

Example: see airport list